Time;durP1;ratioP1;P1;durP2;ratioP2;P2;SDS_P1;SDS_P2;PMS_P1;PMS_P2;Temp;Humidity;BMP_temperature;BMP_pressure;BME280_temperature;BME280_humidity;BME280_pressure;Samples;Min_cycle;Max_cycle;Signal;HPM_P1;HPM_P2
2023/04/20 00:01:43;;;;;;;6.13;4.43;;;;;;;;;;5009303;28;20441;-43
2023/04/20 00:04:09;;;;;;;8.00;4.63;;;;;;;;;;5012126;28;20428;-42
2023/04/20 00:06:35;;;;;;;7.67;4.50;;;;;;;;;;5017734;28;20400;-45
2023/04/20 00:09:03;;;;;;;8.00;4.23;;;;;;;;;;5024401;28;20509;-44
2023/04/20 00:11:29;;;;;;;6.20;4.27;;;;;;;;;;5015768;28;20412;-43
2023/04/20 00:13:55;;;;;;;15.50;5.40;;;;;;;;;;5011802;28;20505;-42
2023/04/20 00:16:21;;;;;;;9.23;4.70;;;;;;;;;;5022219;28;20792;-43
2023/04/20 00:18:48;;;;;;;6.20;4.47;;;;;;;;;;5018957;28;20992;-42
2023/04/20 00:21:14;;;;;;;7.10;4.50;;;;;;;;;;5022717;28;20509;-43
2023/04/20 00:23:41;;;;;;;6.00;4.47;;;;;;;;;;5017088;28;20406;-43
2023/04/20 00:26:07;;;;;;;8.17;4.53;;;;;;;;;;5016542;28;20409;-42
2023/04/20 00:28:33;;;;;;;7.37;4.63;;;;;;;;;;5013292;28;20438;-43
2023/04/20 00:30:59;;;;;;;10.93;5.90;;;;;;;;;;5020200;28;20417;-42
2023/04/20 00:33:25;;;;;;;4.77;4.27;;;;;;;;;;5022258;28;20791;-43
2023/04/20 00:35:50;;;;;;;8.27;4.77;;;;;;;;;;5015868;28;20423;-43
2023/04/20 00:38:16;;;;;;;9.80;6.30;;;;;;;;;;5018316;28;20490;-45
2023/04/20 00:40:43;;;;;;;8.83;5.37;;;;;;;;;;5017621;28;20529;-42
2023/04/20 00:43:10;;;;;;;14.73;7.97;;;;;;;;;;5013555;28;20475;-43
2023/04/20 00:45:36;;;;;;;10.10;6.83;;;;;;;;;;5018856;28;20489;-43
2023/04/20 00:48:02;;;;;;;10.03;6.43;;;;;;;;;;5017726;28;20439;-43
2023/04/20 00:50:28;;;;;;;8.17;5.40;;;;;;;;;;5019265;28;20434;-43
2023/04/20 00:52:54;;;;;;;6.10;4.77;;;;;;;;;;5012534;28;20471;-43
2023/04/20 00:55:20;;;;;;;7.77;5.47;;;;;;;;;;5014636;28;20486;-43
2023/04/20 00:57:46;;;;;;;6.87;4.90;;;;;;;;;;5017905;28;20467;-43
2023/04/20 01:00:12;;;;;;;7.97;4.83;;;;;;;;;;5022981;28;20450;-44
2023/04/20 01:02:38;;;;;;;5.68;4.22;;;;;;;;;;5018662;28;20411;-44
2023/04/20 01:05:04;;;;;;;6.82;4.80;;;;;;;;;;5014803;28;20246;-42
2023/04/20 01:07:31;;;;;;;6.90;4.53;;;;;;;;;;5015990;28;20179;-43
2023/04/20 01:09:57;;;;;;;8.05;4.60;;;;;;;;;;5009297;28;20527;-44
2023/04/20 01:12:23;;;;;;;4.53;3.93;;;;;;;;;;5022791;28;20275;-44
2023/04/20 01:14:49;;;;;;;7.60;5.07;;;;;;;;;;5016557;28;20431;-42
2023/04/20 01:17:16;;;;;;;5.93;4.70;;;;;;;;;;5021827;28;20426;-42
2023/04/20 01:19:43;;;;;;;6.13;4.72;;;;;;;;;;5016614;28;20974;-43
2023/04/20 01:22:15;;;;;;;7.80;5.50;;;;;;;;;;5016703;28;20174;-42
2023/04/20 01:24:41;;;;;;;8.88;5.45;;;;;;;;;;5014287;28;20172;-43
2023/04/20 01:27:07;;;;;;;12.83;6.50;;;;;;;;;;5019349;28;20192;-42
2023/04/20 01:29:33;;;;;;;18.07;10.50;;;;;;;;;;5023020;28;20423;-43
2023/04/20 01:31:59;;;;;;;14.77;8.80;;;;;;;;;;5016000;28;20886;-42
2023/04/20 01:34:25;;;;;;;10.40;7.15;;;;;;;;;;5016684;28;20570;-43
2023/04/20 01:36:51;;;;;;;9.75;6.78;;;;;;;;;;5020828;28;20164;-43
2023/04/20 01:39:17;;;;;;;8.87;5.53;;;;;;;;;;5016552;28;20188;-43
2023/04/20 01:41:43;;;;;;;9.35;5.10;;;;;;;;;;5023648;28;20476;-43
2023/04/20 01:44:09;;;;;;;8.57;5.13;;;;;;;;;;5026833;28;20637;-44
2023/04/20 01:46:39;;;;;;;8.77;4.13;;;;;;;;;;5015035;28;20424;-43
2023/04/20 01:49:05;;;;;;;5.17;4.40;;;;;;;;;;5008232;28;20423;-43
2023/04/20 01:51:32;;;;;;;9.83;4.87;;;;;;;;;;5015068;28;20404;-42
2023/04/20 01:53:58;;;;;;;8.23;4.37;;;;;;;;;;5024721;28;20404;-42
2023/04/20 01:56:24;;;;;;;5.90;5.00;;;;;;;;;;5026292;28;20402;-45
2023/04/20 01:58:50;;;;;;;6.53;4.37;;;;;;;;;;5022377;28;20436;-43
2023/04/20 02:01:16;;;;;;;4.43;3.93;;;;;;;;;;5022454;28;20470;-43
2023/04/20 02:03:42;;;;;;;6.47;4.87;;;;;;;;;;5020770;28;20408;-42
2023/04/20 02:06:08;;;;;;;7.30;5.10;;;;;;;;;;5013583;28;20546;-43
2023/04/20 02:08:34;;;;;;;14.23;4.63;;;;;;;;;;5025714;28;20460;-42
2023/04/20 02:11:00;;;;;;;4.83;3.90;;;;;;;;;;5024137;28;20412;-43
2023/04/20 02:13:26;;;;;;;10.30;5.20;;;;;;;;;;5022989;28;20477;-42
2023/04/20 02:15:52;;;;;;;6.27;4.70;;;;;;;;;;5019367;28;20428;-43
2023/04/20 02:18:18;;;;;;;9.10;6.13;;;;;;;;;;5021203;28;20420;-43
2023/04/20 02:20:45;;;;;;;7.80;5.23;;;;;;;;;;5017574;28;20519;-43
2023/04/20 02:23:11;;;;;;;6.80;4.57;;;;;;;;;;5022579;28;20828;-43
2023/04/20 02:25:37;;;;;;;11.07;4.43;;;;;;;;;;5027103;28;20411;-43
2023/04/20 02:28:03;;;;;;;7.57;4.67;;;;;;;;;;5018771;28;20417;-43
2023/04/20 02:30:29;;;;;;;7.73;4.00;;;;;;;;;;5018435;28;20442;-42
2023/04/20 02:32:56;;;;;;;6.10;4.20;;;;;;;;;;5022315;28;20444;-43
2023/04/20 02:35:22;;;;;;;6.23;4.27;;;;;;;;;;5020238;28;20447;-43
2023/04/20 02:37:48;;;;;;;6.37;4.07;;;;;;;;;;5013829;28;20420;-42
2023/04/20 02:40:14;;;;;;;7.87;4.43;;;;;;;;;;5020150;28;20576;-43
2023/04/20 02:42:40;;;;;;;5.13;3.80;;;;;;;;;;5015513;28;20446;-43
2023/04/20 02:45:06;;;;;;;5.50;4.60;;;;;;;;;;5020658;28;20535;-42
2023/04/20 02:47:32;;;;;;;6.07;4.17;;;;;;;;;;5013363;28;20414;-43
2023/04/20 02:49:58;;;;;;;7.20;4.80;;;;;;;;;;5018535;28;20485;-44
2023/04/20 02:52:24;;;;;;;5.10;3.80;;;;;;;;;;5016492;28;20831;-42
2023/04/20 02:54:50;;;;;;;6.70;3.87;;;;;;;;;;5021815;28;20915;-45
2023/04/20 02:57:16;;;;;;;5.20;4.37;;;;;;;;;;5021858;28;20539;-42
2023/04/20 02:59:42;;;;;;;6.60;5.03;;;;;;;;;;5020271;28;20555;-42
2023/04/20 03:02:08;;;;;;;12.03;5.70;;;;;;;;;;5012801;28;20453;-43
2023/04/20 03:04:35;;;;;;;5.20;4.43;;;;;;;;;;5010134;28;20409;-43
2023/04/20 03:07:02;;;;;;;9.50;4.17;;;;;;;;;;5022644;28;20494;-42
2023/04/20 03:09:28;;;;;;;6.03;4.40;;;;;;;;;;5016941;28;20588;-43
2023/04/20 03:11:54;;;;;;;6.80;4.63;;;;;;;;;;5023613;28;20984;-42
2023/04/20 03:14:20;;;;;;;7.20;5.23;;;;;;;;;;5017771;28;20408;-43
2023/04/20 03:16:46;;;;;;;10.27;5.43;;;;;;;;;;5016610;28;20418;-43
2023/04/20 03:19:13;;;;;;;8.57;5.20;;;;;;;;;;5017016;28;20471;-42
2023/04/20 03:21:39;;;;;;;7.43;5.33;;;;;;;;;;5023094;28;20577;-43
2023/04/20 03:24:06;;;;;;;5.90;5.07;;;;;;;;;;5018839;28;20411;-43
2023/04/20 03:26:32;;;;;;;8.00;5.97;;;;;;;;;;5017210;28;20413;-43
2023/04/20 03:28:58;;;;;;;8.90;4.90;;;;;;;;;;5021125;28;20450;-43
2023/04/20 03:31:24;;;;;;;10.80;5.63;;;;;;;;;;5015623;28;20409;-43
2023/04/20 03:33:50;;;;;;;7.50;5.17;;;;;;;;;;5011092;28;20417;-43
2023/04/20 03:36:16;;;;;;;10.13;5.57;;;;;;;;;;5022337;28;20855;-42
2023/04/20 03:38:42;;;;;;;8.57;5.13;;;;;;;;;;5023000;28;20479;-43
2023/04/20 03:41:08;;;;;;;7.23;5.47;;;;;;;;;;5015730;28;20899;-43
2023/04/20 03:43:34;;;;;;;8.53;5.47;;;;;;;;;;5013487;28;20497;-42
2023/04/20 03:46:00;;;;;;;8.30;5.60;;;;;;;;;;5017843;28;20470;-45
2023/04/20 03:48:26;;;;;;;10.93;6.80;;;;;;;;;;5015502;28;20846;-43
2023/04/20 03:50:52;;;;;;;7.13;5.40;;;;;;;;;;5021435;28;20420;-43
2023/04/20 03:53:18;;;;;;;6.73;5.50;;;;;;;;;;5020953;28;20485;-44
2023/04/20 03:55:44;;;;;;;7.00;5.70;;;;;;;;;;5019636;28;20803;-42
2023/04/20 03:58:10;;;;;;;13.07;8.17;;;;;;;;;;5012169;28;20414;-42
2023/04/20 04:00:36;;;;;;;9.70;5.90;;;;;;;;;;5012543;28;20466;-43
2023/04/20 04:03:02;;;;;;;8.27;6.33;;;;;;;;;;5020441;28;20435;-42
2023/04/20 04:05:28;;;;;;;7.73;5.80;;;;;;;;;;5020854;28;20426;-43
2023/04/20 04:07:54;;;;;;;8.60;5.87;;;;;;;;;;5020254;28;20967;-42
2023/04/20 04:10:20;;;;;;;6.60;4.70;;;;;;;;;;5015690;28;20927;-42
2023/04/20 04:12:46;;;;;;;9.40;5.67;;;;;;;;;;5016198;28;20477;-42
2023/04/20 04:15:13;;;;;;;9.80;6.27;;;;;;;;;;5009404;28;20480;-43
2023/04/20 04:17:39;;;;;;;13.20;5.90;;;;;;;;;;5022234;28;20919;-46
2023/04/20 04:20:08;;;;;;;14.93;6.43;;;;;;;;;;5017681;28;20487;-44
2023/04/20 04:22:34;;;;;;;10.97;6.23;;;;;;;;;;5016050;28;20455;-43
2023/04/20 04:25:00;;;;;;;11.10;5.93;;;;;;;;;;5020971;28;20437;-42
2023/04/20 04:27:28;;;;;;;8.67;5.13;;;;;;;;;;5014963;28;20439;-45
2023/04/20 04:29:55;;;;;;;11.70;6.07;;;;;;;;;;5019214;28;20496;-43
2023/04/20 04:32:23;;;;;;;11.80;6.13;;;;;;;;;;5016924;28;20434;-42
2023/04/20 04:34:49;;;;;;;12.13;6.70;;;;;;;;;;5019219;28;20439;-42
2023/04/20 04:37:15;;;;;;;10.98;5.97;;;;;;;;;;5016489;28;20410;-43
2023/04/20 04:39:41;;;;;;;11.93;6.30;;;;;;;;;;5010849;28;20251;-42
2023/04/20 04:42:07;;;;;;;7.93;6.33;;;;;;;;;;5016566;28;20417;-43
2023/04/20 04:44:33;;;;;;;9.60;5.73;;;;;;;;;;5015397;28;20399;-42
2023/04/20 04:47:01;;;;;;;7.53;5.45;;;;;;;;;;5022137;28;20406;-42
2023/04/20 04:49:28;;;;;;;7.27;6.03;;;;;;;;;;5019053;28;20199;-43
2023/04/20 04:51:54;;;;;;;6.95;5.20;;;;;;;;;;5019367;28;20417;-43
2023/04/20 04:54:20;;;;;;;8.10;5.63;;;;;;;;;;5012083;28;20257;-42
2023/04/20 04:56:46;;;;;;;5.73;4.63;;;;;;;;;;5012972;28;20457;-43
2023/04/20 04:59:12;;;;;;;8.97;5.37;;;;;;;;;;5025236;28;20453;-42
2023/04/20 05:01:38;;;;;;;10.57;5.73;;;;;;;;;;5017833;28;20464;-43
2023/04/20 05:04:04;;;;;;;8.57;6.13;;;;;;;;;;5019857;28;20404;-42
2023/04/20 05:06:31;;;;;;;6.93;5.83;;;;;;;;;;5015451;28;20412;-43
2023/04/20 05:08:57;;;;;;;8.30;5.87;;;;;;;;;;5021597;28;20428;-42
2023/04/20 05:11:23;;;;;;;6.00;5.23;;;;;;;;;;5011925;28;20416;-44
2023/04/20 05:13:49;;;;;;;7.97;5.37;;;;;;;;;;5024619;28;20511;-43
2023/04/20 05:16:15;;;;;;;6.00;5.40;;;;;;;;;;5023221;28;20522;-42
2023/04/20 05:18:41;;;;;;;8.10;5.43;;;;;;;;;;5018983;28;20445;-44
2023/04/20 05:21:07;;;;;;;6.73;5.47;;;;;;;;;;5023607;28;21040;-44
2023/04/20 05:23:33;;;;;;;6.83;5.33;;;;;;;;;;5024453;28;20434;-44
2023/04/20 05:25:59;;;;;;;17.90;5.33;;;;;;;;;;5017062;28;20420;-46
2023/04/20 05:28:25;;;;;;;8.47;5.80;;;;;;;;;;5023059;28;20462;-46
2023/04/20 05:30:54;;;;;;;11.03;5.27;;;;;;;;;;5027355;28;20414;-44
2023/04/20 05:33:20;;;;;;;6.17;4.73;;;;;;;;;;5021366;28;20775;-47
2023/04/20 05:35:46;;;;;;;6.37;5.50;;;;;;;;;;5016109;28;20428;-45
2023/04/20 05:38:12;;;;;;;8.20;6.73;;;;;;;;;;5019429;28;20420;-45
2023/04/20 05:40:38;;;;;;;8.50;6.37;;;;;;;;;;5019956;28;20549;-44
2023/04/20 05:43:04;;;;;;;7.17;6.20;;;;;;;;;;5027489;28;20403;-44
2023/04/20 05:45:31;;;;;;;11.70;7.00;;;;;;;;;;5023747;28;20411;-44
2023/04/20 05:47:57;;;;;;;12.40;7.07;;;;;;;;;;5022726;28;20530;-44
2023/04/20 05:50:24;;;;;;;7.65;6.25;;;;;;;;;;5025347;28;20437;-46
2023/04/20 05:52:50;;;;;;;7.93;5.85;;;;;;;;;;5013202;28;20178;-45
2023/04/20 05:55:17;;;;;;;13.15;6.90;;;;;;;;;;5028117;28;20174;-46
2023/04/20 05:57:43;;;;;;;9.25;6.40;;;;;;;;;;5022896;28;20399;-44
2023/04/20 06:00:13;;;;;;;7.37;5.53;;;;;;;;;;5027734;28;20198;-44
2023/04/20 06:02:39;;;;;;;13.25;7.80;;;;;;;;;;5021048;28;20938;-47
2023/04/20 06:05:05;;;;;;;11.32;8.65;;;;;;;;;;5016078;28;20276;-46
2023/04/20 06:07:31;;;;;;;11.35;8.27;;;;;;;;;;5016226;28;20180;-45
2023/04/20 06:09:59;;;;;;;10.70;7.60;;;;;;;;;;5023421;28;20285;-45
2023/04/20 06:12:25;;;;;;;12.27;7.55;;;;;;;;;;5025437;28;20468;-44
2023/04/20 06:14:51;;;;;;;11.30;7.70;;;;;;;;;;5009548;28;20671;-45
2023/04/20 06:17:17;;;;;;;9.50;8.60;;;;;;;;;;5008720;28;20184;-44
2023/04/20 06:19:43;;;;;;;9.20;7.37;;;;;;;;;;5021392;28;20276;-46
2023/04/20 06:22:10;;;;;;;9.63;8.07;;;;;;;;;;5025714;28;20437;-45
2023/04/20 06:24:37;;;;;;;14.88;8.43;;;;;;;;;;5021093;28;20237;-45
2023/04/20 06:27:03;;;;;;;13.45;8.00;;;;;;;;;;5026992;28;20727;-46
2023/04/20 06:29:29;;;;;;;15.80;9.27;;;;;;;;;;5018488;28;20239;-46
2023/04/20 06:31:55;;;;;;;12.38;8.25;;;;;;;;;;5017109;28;20498;-46
2023/04/20 06:34:21;;;;;;;11.02;7.47;;;;;;;;;;5018929;28;20538;-46
2023/04/20 06:36:47;;;;;;;8.53;6.80;;;;;;;;;;5023205;28;20251;-45
2023/04/20 06:39:16;;;;;;;11.17;7.93;;;;;;;;;;5020844;28;20434;-45
2023/04/20 06:41:42;;;;;;;11.65;9.48;;;;;;;;;;5016216;28;20483;-46
2023/04/20 06:44:08;;;;;;;8.52;7.72;;;;;;;;;;5021782;28;20239;-45
2023/04/20 06:46:34;;;;;;;11.73;9.30;;;;;;;;;;5018378;28;20196;-45
2023/04/20 06:49:00;;;;;;;8.93;7.55;;;;;;;;;;5015070;28;20490;-45
2023/04/20 06:51:27;;;;;;;11.82;7.70;;;;;;;;;;5021849;28;20181;-45
2023/04/20 06:53:54;;;;;;;8.88;7.30;;;;;;;;;;5025540;28;20176;-46
2023/04/20 06:56:20;;;;;;;10.40;8.10;;;;;;;;;;5019296;28;20636;-46
2023/04/20 06:58:46;;;;;;;13.33;7.80;;;;;;;;;;5013012;28;20857;-45
2023/04/20 07:01:12;;;;;;;9.97;6.67;;;;;;;;;;5018017;28;20495;-44
2023/04/20 07:03:38;;;;;;;11.40;8.17;;;;;;;;;;5017708;28;20437;-45
2023/04/20 07:06:06;;;;;;;11.13;8.07;;;;;;;;;;5022401;28;20503;-45
2023/04/20 07:08:32;;;;;;;10.87;7.87;;;;;;;;;;5009907;28;20525;-45
2023/04/20 07:10:58;;;;;;;10.80;8.23;;;;;;;;;;5021488;28;20802;-46
2023/04/20 07:13:24;;;;;;;12.23;8.67;;;;;;;;;;5016326;28;20410;-45
2023/04/20 07:15:50;;;;;;;9.60;7.37;;;;;;;;;;5010161;28;20412;-45
2023/04/20 07:18:16;;;;;;;12.23;9.20;;;;;;;;;;5024226;28;20410;-46
2023/04/20 07:20:42;;;;;;;10.70;7.73;;;;;;;;;;5022124;28;20258;-46
2023/04/20 07:23:08;;;;;;;17.20;6.60;;;;;;;;;;5025316;28;20450;-45
2023/04/20 07:25:34;;;;;;;12.20;7.60;;;;;;;;;;5017647;28;20515;-44
2023/04/20 07:28:00;;;;;;;10.87;8.63;;;;;;;;;;5017918;28;20407;-46
2023/04/20 07:30:26;;;;;;;13.37;8.47;;;;;;;;;;5012670;28;20473;-45
2023/04/20 07:32:52;;;;;;;11.00;8.00;;;;;;;;;;5021677;28;20417;-45
2023/04/20 07:35:17;;;;;;;13.87;7.53;;;;;;;;;;5019790;28;20434;-45
2023/04/20 07:37:43;;;;;;;10.20;7.53;;;;;;;;;;5015891;28;20408;-46
2023/04/20 07:40:10;;;;;;;9.40;7.17;;;;;;;;;;5020698;28;20458;-46
2023/04/20 07:42:36;;;;;;;12.57;7.93;;;;;;;;;;5017411;28;20431;-45
2023/04/20 07:45:05;;;;;;;11.87;8.27;;;;;;;;;;5014361;28;20420;-45
2023/04/20 07:47:33;;;;;;;10.03;7.20;;;;;;;;;;5020265;28;20446;-44
2023/04/20 07:49:59;;;;;;;13.93;9.10;;;;;;;;;;5023972;28;20966;-46
2023/04/20 07:52:25;;;;;;;10.77;8.00;;;;;;;;;;5019152;28;20442;-45
2023/04/20 07:54:56;;;;;;;18.37;8.90;;;;;;;;;;5014060;28;20419;-46
2023/04/20 07:57:22;;;;;;;9.80;7.97;;;;;;;;;;5014196;28;20420;-45
2023/04/20 07:59:48;;;;;;;12.20;9.07;;;;;;;;;;5018408;28;20431;-44
2023/04/20 08:02:15;;;;;;;11.77;7.57;;;;;;;;;;5024502;28;20510;-47
2023/04/20 08:04:43;;;;;;;9.30;7.90;;;;;;;;;;5019466;28;20424;-44
2023/04/20 08:07:09;;;;;;;11.20;7.70;;;;;;;;;;5011251;28;20439;-46
2023/04/20 08:09:35;;;;;;;9.73;7.53;;;;;;;;;;4999448;28;20928;-45
2023/04/20 08:12:01;;;;;;;14.13;8.33;;;;;;;;;;4993250;28;20474;-45
2023/04/20 08:14:27;;;;;;;17.57;9.00;;;;;;;;;;4993354;28;20400;-46
2023/04/20 08:16:53;;;;;;;14.13;8.40;;;;;;;;;;4992570;28;20463;-45
2023/04/20 08:19:19;;;;;;;15.03;9.37;;;;;;;;;;4999557;28;20483;-47
2023/04/20 08:21:45;;;;;;;13.30;8.70;;;;;;;;;;4999216;28;20511;-46
2023/04/20 08:24:12;;;;;;;11.73;8.77;;;;;;;;;;4995017;28;20876;-46
2023/04/20 08:26:38;;;;;;;18.87;9.37;;;;;;;;;;5008777;28;20482;-45
2023/04/20 08:29:05;;;;;;;13.90;9.10;;;;;;;;;;5011278;28;20798;-46
2023/04/20 08:31:31;;;;;;;15.87;8.80;;;;;;;;;;5011798;28;20459;-44
2023/04/20 08:33:57;;;;;;;13.80;9.53;;;;;;;;;;5012283;28;20408;-45
2023/04/20 08:36:23;;;;;;;15.63;10.10;;;;;;;;;;4996888;28;20416;-46
2023/04/20 08:39:06;;;;;;;13.20;9.10;;;;;;;;;;4996696;28;20976;-45
2023/04/20 08:41:32;;;;;;;13.77;9.40;;;;;;;;;;4992130;28;20521;-44
2023/04/20 08:43:58;;;;;;;14.83;9.87;;;;;;;;;;4992206;28;20449;-44
2023/04/20 08:46:24;;;;;;;13.00;9.70;;;;;;;;;;4991734;28;20417;-46
2023/04/20 08:48:54;;;;;;;14.67;10.10;;;;;;;;;;4990887;28;20445;-46
2023/04/20 08:51:20;;;;;;;10.00;8.27;;;;;;;;;;4991714;28;20482;-45
2023/04/20 08:53:46;;;;;;;11.10;7.00;;;;;;;;;;4992477;28;20474;-45
2023/04/20 08:56:12;;;;;;;8.07;6.90;;;;;;;;;;4996792;28;20442;-46
2023/04/20 08:58:41;;;;;;;10.77;8.20;;;;;;;;;;5005413;28;20454;-46
2023/04/20 09:01:10;;;;;;;8.93;6.50;;;;;;;;;;5011100;28;20462;-46
2023/04/20 09:03:37;;;;;;;8.23;6.73;;;;;;;;;;5010689;28;20415;-45
2023/04/20 09:06:06;;;;;;;11.07;6.50;;;;;;;;;;5002919;28;20444;-46
2023/04/20 09:08:37;;;;;;;8.73;5.53;;;;;;;;;;4991073;28;20437;-46
2023/04/20 09:11:02;;;;;;;5.63;4.60;;;;;;;;;;4998885;28;20411;-45
2023/04/20 09:13:29;;;;;;;7.90;5.47;;;;;;;;;;5021848;28;20824;-46
2023/04/20 09:15:55;;;;;;;10.00;5.27;;;;;;;;;;5020937;28;20402;-45
2023/04/20 09:18:22;;;;;;;7.03;5.60;;;;;;;;;;5017286;28;20688;-45
2023/04/20 09:20:48;;;;;;;13.07;6.73;;;;;;;;;;5012580;28;20498;-45
2023/04/20 09:23:18;;;;;;;8.23;5.90;;;;;;;;;;5015027;28;20426;-46
2023/04/20 09:25:45;;;;;;;8.53;6.40;;;;;;;;;;5022006;28;20472;-45
2023/04/20 09:28:12;;;;;;;9.00;7.40;;;;;;;;;;5019483;28;20500;-46
2023/04/20 09:30:38;;;;;;;6.97;5.63;;;;;;;;;;5015648;28;20827;-44
2023/04/20 09:33:04;;;;;;;8.67;6.57;;;;;;;;;;5021732;28;20402;-45
2023/04/20 09:35:30;;;;;;;8.00;6.57;;;;;;;;;;5015066;28;20926;-45
2023/04/20 09:37:56;;;;;;;8.77;6.63;;;;;;;;;;5013397;28;20909;-44
2023/04/20 09:40:25;;;;;;;7.03;5.50;;;;;;;;;;5018747;28;20466;-46
2023/04/20 09:42:52;;;;;;;8.17;6.57;;;;;;;;;;5023448;28;20426;-45
2023/04/20 09:45:18;;;;;;;10.40;6.90;;;;;;;;;;5017730;28;20413;-47
2023/04/20 09:47:45;;;;;;;12.13;7.13;;;;;;;;;;5012138;28;20451;-47
2023/04/20 09:50:11;;;;;;;7.77;6.97;;;;;;;;;;5012592;28;20447;-44
2023/04/20 09:52:37;;;;;;;8.47;7.30;;;;;;;;;;5015307;28;20437;-46
2023/04/20 09:55:06;;;;;;;8.50;6.70;;;;;;;;;;5022756;28;20406;-46
2023/04/20 09:57:33;;;;;;;9.23;6.87;;;;;;;;;;5019242;28;20419;-45
2023/04/20 10:00:00;;;;;;;9.30;5.50;;;;;;;;;;5023148;28;20859;-47
2023/04/20 10:02:26;;;;;;;6.97;5.77;;;;;;;;;;5024333;28;20804;-45
2023/04/20 10:04:53;;;;;;;7.40;5.70;;;;;;;;;;5012028;28;20409;-46
2023/04/20 10:07:25;;;;;;;8.17;6.13;;;;;;;;;;5025413;28;20935;-45
2023/04/20 10:10:11;;;;;;;7.50;6.40;;;;;;;;;;5014401;28;20469;-46
2023/04/20 10:12:53;;;;;;;6.00;5.40;;;;;;;;;;5011250;28;20827;-46
2023/04/20 10:15:20;;;;;;;8.77;5.97;;;;;;;;;;4997394;28;20423;-45
2023/04/20 10:17:46;;;;;;;6.97;5.47;;;;;;;;;;5013984;28;20415;-46
2023/04/20 10:20:28;;;;;;;6.30;4.90;;;;;;;;;;5014655;28;20469;-47
2023/04/20 10:22:55;;;;;;;5.40;4.70;;;;;;;;;;4995775;28;20407;-45
2023/04/20 10:25:23;;;;;;;7.07;5.00;;;;;;;;;;4994968;28;20931;-46
2023/04/20 10:27:52;;;;;;;6.27;5.63;;;;;;;;;;4994538;28;20502;-45
2023/04/20 10:30:18;;;;;;;6.40;5.37;;;;;;;;;;4994511;28;20469;-45
2023/04/20 10:32:44;;;;;;;9.40;5.60;;;;;;;;;;4994647;28;20427;-46
2023/04/20 10:35:12;;;;;;;7.43;6.03;;;;;;;;;;4994476;28;20531;-45
2023/04/20 10:37:56;;;;;;;7.53;5.80;;;;;;;;;;4994439;28;20439;-45
2023/04/20 10:40:26;;;;;;;7.33;6.57;;;;;;;;;;4994342;28;20522;-46
2023/04/20 10:42:52;;;;;;;7.53;6.63;;;;;;;;;;5004225;28;20517;-46
2023/04/20 10:45:18;;;;;;;6.33;5.47;;;;;;;;;;5013474;28;20524;-45
2023/04/20 10:47:44;;;;;;;11.13;6.00;;;;;;;;;;5014020;28;20914;-45
2023/04/20 10:50:11;;;;;;;5.73;5.13;;;;;;;;;;5001292;28;20433;-45
2023/04/20 10:52:38;;;;;;;7.00;5.80;;;;;;;;;;4994611;28;20420;-46
2023/04/20 10:55:05;;;;;;;7.50;6.30;;;;;;;;;;4999037;28;20477;-45
2023/04/20 10:57:32;;;;;;;7.90;6.40;;;;;;;;;;5010621;28;20425;-46
2023/04/20 10:59:58;;;;;;;7.00;5.70;;;;;;;;;;5013468;28;20434;-45
2023/04/20 11:02:25;;;;;;;6.03;5.43;;;;;;;;;;5012183;28;20423;-45
2023/04/20 11:04:52;;;;;;;7.93;6.20;;;;;;;;;;5006750;28;20412;-44
2023/04/20 11:07:19;;;;;;;8.20;5.87;;;;;;;;;;5007012;28;20824;-46
2023/04/20 11:09:52;;;;;;;9.57;6.07;;;;;;;;;;5004972;28;20536;-45
2023/04/20 11:12:18;;;;;;;6.23;5.20;;;;;;;;;;5003861;28;20432;-46
2023/04/20 11:14:54;;;;;;;6.70;5.23;;;;;;;;;;5008609;28;20399;-47
2023/04/20 11:17:31;;;;;;;6.50;5.27;;;;;;;;;;5014207;28;20789;-47
2023/04/20 11:20:05;;;;;;;7.10;5.60;;;;;;;;;;5010678;28;20438;-46
2023/04/20 11:22:31;;;;;;;5.17;4.67;;;;;;;;;;4994364;28;20376;-46
2023/04/20 11:25:06;;;;;;;4.77;4.27;;;;;;;;;;4993894;28;20483;-45
2023/04/20 11:27:33;;;;;;;4.53;4.13;;;;;;;;;;4994032;28;20852;-46
2023/04/20 11:30:03;;;;;;;5.33;4.07;;;;;;;;;;4993758;28;20434;-45
2023/04/20 11:32:29;;;;;;;4.30;3.93;;;;;;;;;;4993366;28;20898;-43
2023/04/20 11:34:59;;;;;;;5.80;3.97;;;;;;;;;;4997073;28;20397;-44
2023/04/20 11:37:25;;;;;;;4.37;3.93;;;;;;;;;;5012267;28;20477;-43
2023/04/20 11:40:02;;;;;;;4.67;4.27;;;;;;;;;;5006006;28;20428;-43
2023/04/20 11:42:28;;;;;;;5.10;4.27;;;;;;;;;;4993316;28;20422;-44
2023/04/20 11:44:55;;;;;;;4.83;4.33;;;;;;;;;;4993148;28;20375;-43
2023/04/20 11:47:21;;;;;;;4.00;3.70;;;;;;;;;;4994128;28;20371;-47
2023/04/20 11:49:47;;;;;;;5.13;4.63;;;;;;;;;;4993693;28;20428;-45
2023/04/20 11:52:15;;;;;;;4.10;3.80;;;;;;;;;;5006875;28;20509;-44
2023/04/20 11:54:41;;;;;;;4.43;4.03;;;;;;;;;;5012865;28;20426;-44
2023/04/20 11:57:07;;;;;;;6.13;5.07;;;;;;;;;;4993996;28;20787;-44
2023/04/20 11:59:34;;;;;;;7.87;5.40;;;;;;;;;;5002417;28;20751;-44
2023/04/20 12:02:02;;;;;;;6.50;4.90;;;;;;;;;;5010920;28;20466;-46
2023/04/20 12:04:30;;;;;;;11.83;5.60;;;;;;;;;;5011476;28;20404;-44
2023/04/20 12:06:58;;;;;;;6.33;5.63;;;;;;;;;;4994736;28;20477;-44
2023/04/20 12:09:24;;;;;;;7.43;5.40;;;;;;;;;;4993508;28;20442;-44
2023/04/20 12:11:50;;;;;;;7.87;5.53;;;;;;;;;;4992707;28;20430;-44
2023/04/20 12:14:16;;;;;;;7.30;5.60;;;;;;;;;;4992112;28;20865;-43
2023/04/20 12:16:42;;;;;;;7.53;5.33;;;;;;;;;;4992862;28;20514;-44
2023/04/20 12:19:08;;;;;;;7.33;5.30;;;;;;;;;;4992323;28;20419;-44
2023/04/20 12:21:34;;;;;;;11.70;6.53;;;;;;;;;;4991800;28;20519;-44
2023/04/20 12:24:00;;;;;;;6.87;5.70;;;;;;;;;;4992503;28;20891;-44
2023/04/20 12:26:26;;;;;;;6.60;5.43;;;;;;;;;;4992579;28;20449;-44
2023/04/20 12:28:52;;;;;;;9.30;7.63;;;;;;;;;;5009113;28;20442;-44
2023/04/20 12:31:18;;;;;;;9.60;6.37;;;;;;;;;;5016803;28;20394;-44
2023/04/20 12:33:44;;;;;;;6.20;5.60;;;;;;;;;;5018743;28;20468;-44
2023/04/20 12:36:10;;;;;;;5.80;5.20;;;;;;;;;;5014796;28;20944;-44
2023/04/20 12:38:36;;;;;;;6.87;5.93;;;;;;;;;;5010967;28;20454;-44
2023/04/20 12:41:03;;;;;;;8.10;7.20;;;;;;;;;;5016790;28;20478;-45
2023/04/20 12:43:30;;;;;;;7.10;6.40;;;;;;;;;;5015113;28;20400;-45
2023/04/20 12:45:56;;;;;;;7.07;5.77;;;;;;;;;;5021251;28;20475;-44
2023/04/20 12:48:22;;;;;;;7.67;6.30;;;;;;;;;;5019057;28;20411;-44
2023/04/20 12:50:48;;;;;;;7.93;6.80;;;;;;;;;;5018722;28;20474;-43
2023/04/20 12:53:14;;;;;;;6.50;5.80;;;;;;;;;;5012074;28;20386;-44
2023/04/20 12:55:40;;;;;;;9.10;6.90;;;;;;;;;;5005787;28;20776;-44
2023/04/20 12:58:06;;;;;;;9.80;7.17;;;;;;;;;;5009686;28;20418;-45
2023/04/20 13:00:32;;;;;;;8.27;5.80;;;;;;;;;;5019045;28;20873;-44
2023/04/20 13:02:58;;;;;;;7.70;6.30;;;;;;;;;;5003426;28;20987;-45
2023/04/20 13:05:24;;;;;;;19.67;7.07;;;;;;;;;;5004727;28;20434;-44
2023/04/20 13:07:50;;;;;;;10.00;7.00;;;;;;;;;;5007451;28;20487;-45
2023/04/20 13:10:17;;;;;;;8.73;6.60;;;;;;;;;;5010210;28;20950;-44
2023/04/20 13:12:43;;;;;;;8.83;6.93;;;;;;;;;;5006122;28;20954;-44
2023/04/20 13:15:09;;;;;;;11.80;7.93;;;;;;;;;;5030078;28;20529;-44
2023/04/20 13:17:35;;;;;;;10.47;6.63;;;;;;;;;;5010206;28;20434;-43
2023/04/20 13:20:03;;;;;;;10.10;7.27;;;;;;;;;;5009527;28;20419;-43
2023/04/20 13:22:29;;;;;;;8.60;7.40;;;;;;;;;;5007508;28;20395;-43
2023/04/20 13:24:55;;;;;;;7.87;6.83;;;;;;;;;;5010071;28;20412;-43
2023/04/20 13:27:21;;;;;;;8.10;7.30;;;;;;;;;;5010733;28;20405;-45
2023/04/20 13:29:47;;;;;;;9.57;7.67;;;;;;;;;;5007552;28;21109;-43
2023/04/20 13:32:13;;;;;;;9.10;6.90;;;;;;;;;;5005986;28;20412;-43
2023/04/20 13:34:39;;;;;;;7.40;6.63;;;;;;;;;;5014924;28;20492;-44
2023/04/20 13:37:05;;;;;;;11.70;9.10;;;;;;;;;;5012919;28;20418;-44
2023/04/20 13:39:31;;;;;;;9.90;7.57;;;;;;;;;;5006333;28;20456;-44
2023/04/20 13:41:57;;;;;;;9.97;8.20;;;;;;;;;;5011897;28;21054;-45
2023/04/20 13:44:23;;;;;;;9.60;6.53;;;;;;;;;;5012078;28;20421;-43
2023/04/20 13:46:49;;;;;;;10.60;7.83;;;;;;;;;;4999240;28;20840;-44
2023/04/20 13:49:15;;;;;;;10.30;6.83;;;;;;;;;;4994357;28;20492;-44
2023/04/20 13:51:42;;;;;;;8.00;6.60;;;;;;;;;;4995353;28;20971;-43
2023/04/20 13:54:08;;;;;;;8.80;7.67;;;;;;;;;;5005780;28;20512;-44
2023/04/20 13:56:34;;;;;;;8.90;7.70;;;;;;;;;;5005707;28;20970;-44
2023/04/20 13:59:02;;;;;;;9.57;7.40;;;;;;;;;;5013598;28;20968;-43
2023/04/20 14:01:29;;;;;;;8.60;7.70;;;;;;;;;;5013020;28;20558;-45
2023/04/20 14:03:55;;;;;;;10.13;8.13;;;;;;;;;;4997573;28;20962;-43
2023/04/20 14:06:21;;;;;;;9.73;8.13;;;;;;;;;;5002705;28;20437;-44
2023/04/20 14:08:47;;;;;;;10.33;7.70;;;;;;;;;;5001682;28;20421;-44
2023/04/20 14:11:13;;;;;;;8.87;7.07;;;;;;;;;;4994370;28;20391;-45
2023/04/20 14:13:40;;;;;;;8.83;7.50;;;;;;;;;;4994486;28;20392;-44
2023/04/20 14:16:08;;;;;;;9.63;7.57;;;;;;;;;;4994185;28;20382;-44
2023/04/20 14:18:34;;;;;;;9.73;8.20;;;;;;;;;;5002837;28;20406;-45
2023/04/20 14:21:00;;;;;;;10.73;8.67;;;;;;;;;;5007307;28;20477;-43
2023/04/20 14:23:26;;;;;;;10.70;8.27;;;;;;;;;;5013342;28;20422;-43
2023/04/20 14:25:52;;;;;;;12.50;8.60;;;;;;;;;;5007803;28;20436;-43
2023/04/20 14:28:18;;;;;;;13.20;9.80;;;;;;;;;;5013569;28;20422;-44
2023/04/20 14:30:45;;;;;;;10.90;8.67;;;;;;;;;;5012822;28;20421;-44
2023/04/20 14:33:11;;;;;;;10.93;8.17;;;;;;;;;;5009959;28;20508;-44
2023/04/20 14:35:37;;;;;;;15.73;8.93;;;;;;;;;;5006491;28;20444;-43